DAUG/GHA METAR and TAF weather

Enter ICAO airport designator
Station Type Date Time Source
DAUG METAR 2020/09/18 19:00 UTC NOAA

DAUG 181900Z 14008KT CAVOK 33/05 Q1019


Station Type Date Time Source
DAUG Decoded METAR 2020/09/18 19:00 UTC NOAA

Ghardaia, Algeria (DAUG) 32-23N 003-49E 450M
Sep 18, 2020 - 03:00 PM EDT / 2020.09.18 1900 UTC
Wind: from the SE (140 degrees) at 9 MPH (8 KT):0
Visibility: greater than 7 mile(s):0
Temperature: 91 F (33 C)
Dew Point: 41 F (5 C)
Relative Humidity: 17%
Pressure (altimeter): 30.09 in. Hg (1019 hPa)
ob: DAUG 181900Z 14008KT CAVOK 33/05 Q1019
cycle: 19

Station Type Date Time Source
DAUG TAF 2020/09/18 18:33 UTC NOAA

TAF DAUG 181700Z 1818/1918 17012KT CAVOK
BECMG 1820/1824 VRB02KT
BECMG 1906/1910 18010KT

Example: see airport list